sensor_id;sensor_type;location;lat;lon;timestamp;temperature;humidity
20750;DHT22;10535;50.664;4.564;2022-07-23T00:01:05;16.00;99.90
20750;DHT22;10535;50.664;4.564;2022-07-23T00:03:32;16.10;99.90
20750;DHT22;10535;50.664;4.564;2022-07-23T00:05:57;16.10;99.90
20750;DHT22;10535;50.664;4.564;2022-07-23T00:08:24;16.00;99.90
20750;DHT22;10535;50.664;4.564;2022-07-23T00:10:50;15.90;99.90
20750;DHT22;10535;50.664;4.564;2022-07-23T00:13:15;15.80;99.90
20750;DHT22;10535;50.664;4.564;2022-07-23T00:15:41;15.90;99.90
20750;DHT22;10535;50.664;4.564;2022-07-23T00:18:07;15.90;99.90
20750;DHT22;10535;50.664;4.564;2022-07-23T00:20:33;15.90;99.90
20750;DHT22;10535;50.664;4.564;2022-07-23T00:22:58;15.90;99.90
20750;DHT22;10535;50.664;4.564;2022-07-23T00:25:24;15.90;99.90
20750;DHT22;10535;50.664;4.564;2022-07-23T00:27:50;15.80;99.90
20750;DHT22;10535;50.664;4.564;2022-07-23T00:30:16;15.70;99.90
20750;DHT22;10535;50.664;4.564;2022-07-23T00:32:53;15.70;99.90
20750;DHT22;10535;50.664;4.564;2022-07-23T00:35:21;15.60;99.90
20750;DHT22;10535;50.664;4.564;2022-07-23T00:37:47;15.60;99.90
20750;DHT22;10535;50.664;4.564;2022-07-23T00:40:15;15.60;99.90
20750;DHT22;10535;50.664;4.564;2022-07-23T00:42:40;15.60;99.90
20750;DHT22;10535;50.664;4.564;2022-07-23T00:45:06;15.50;99.90
20750;DHT22;10535;50.664;4.564;2022-07-23T00:47:33;15.40;99.90
20750;DHT22;10535;50.664;4.564;2022-07-23T00:49:58;15.50;99.90
20750;DHT22;10535;50.664;4.564;2022-07-23T00:52:25;15.50;99.90
20750;DHT22;10535;50.664;4.564;2022-07-23T00:54:50;15.50;99.90
20750;DHT22;10535;50.664;4.564;2022-07-23T00:57:17;15.50;99.90
20750;DHT22;10535;50.664;4.564;2022-07-23T00:59:43;15.50;99.90
20750;DHT22;10535;50.664;4.564;2022-07-23T01:02:09;15.60;99.90
20750;DHT22;10535;50.664;4.564;2022-07-23T01:04:36;15.60;99.90
20750;DHT22;10535;50.664;4.564;2022-07-23T01:07:02;15.60;99.90
20750;DHT22;10535;50.664;4.564;2022-07-23T01:09:28;15.60;99.90
20750;DHT22;10535;50.664;4.564;2022-07-23T01:11:57;15.60;99.90
20750;DHT22;10535;50.664;4.564;2022-07-23T01:14:24;15.70;99.90
20750;DHT22;10535;50.664;4.564;2022-07-23T01:16:50;15.80;99.90
20750;DHT22;10535;50.664;4.564;2022-07-23T01:19:16;15.70;99.90
20750;DHT22;10535;50.664;4.564;2022-07-23T01:21:45;15.60;99.90
20750;DHT22;10535;50.664;4.564;2022-07-23T01:24:12;15.70;99.90
20750;DHT22;10535;50.664;4.564;2022-07-23T01:26:38;15.60;99.90
20750;DHT22;10535;50.664;4.564;2022-07-23T01:29:08;15.50;99.90
20750;DHT22;10535;50.664;4.564;2022-07-23T01:31:34;15.40;99.90
20750;DHT22;10535;50.664;4.564;2022-07-23T01:34:00;15.30;99.90
20750;DHT22;10535;50.664;4.564;2022-07-23T01:36:25;15.30;99.90
20750;DHT22;10535;50.664;4.564;2022-07-23T01:38:51;15.40;99.90
20750;DHT22;10535;50.664;4.564;2022-07-23T01:41:17;15.50;99.90
20750;DHT22;10535;50.664;4.564;2022-07-23T01:43:43;15.30;99.90
20750;DHT22;10535;50.664;4.564;2022-07-23T01:46:09;15.00;99.90
20750;DHT22;10535;50.664;4.564;2022-07-23T01:48:35;15.40;99.90
20750;DHT22;10535;50.664;4.564;2022-07-23T01:51:01;15.50;99.90
20750;DHT22;10535;50.664;4.564;2022-07-23T01:53:27;15.40;99.90
20750;DHT22;10535;50.664;4.564;2022-07-23T01:55:52;15.30;99.90
20750;DHT22;10535;50.664;4.564;2022-07-23T01:58:18;15.40;99.90
20750;DHT22;10535;50.664;4.564;2022-07-23T02:00:44;15.50;99.90
20750;DHT22;10535;50.664;4.564;2022-07-23T02:03:09;15.50;99.90
20750;DHT22;10535;50.664;4.564;2022-07-23T02:05:35;15.50;99.90
20750;DHT22;10535;50.664;4.564;2022-07-23T02:08:02;15.50;99.90
20750;DHT22;10535;50.664;4.564;2022-07-23T02:10:28;15.50;99.90
20750;DHT22;10535;50.664;4.564;2022-07-23T02:12:53;15.40;99.90
20750;DHT22;10535;50.664;4.564;2022-07-23T02:15:19;15.40;99.90
20750;DHT22;10535;50.664;4.564;2022-07-23T02:17:45;15.50;99.90
20750;DHT22;10535;50.664;4.564;2022-07-23T02:20:11;15.50;99.90
20750;DHT22;10535;50.664;4.564;2022-07-23T02:22:38;15.40;99.90
20750;DHT22;10535;50.664;4.564;2022-07-23T02:25:05;15.40;99.90
20750;DHT22;10535;50.664;4.564;2022-07-23T02:27:31;15.60;99.90
20750;DHT22;10535;50.664;4.564;2022-07-23T02:29:57;15.60;99.90
20750;DHT22;10535;50.664;4.564;2022-07-23T02:32:23;15.50;99.90
20750;DHT22;10535;50.664;4.564;2022-07-23T02:34:49;15.40;99.90
20750;DHT22;10535;50.664;4.564;2022-07-23T02:37:15;15.50;99.90
20750;DHT22;10535;50.664;4.564;2022-07-23T02:39:41;15.60;99.90
20750;DHT22;10535;50.664;4.564;2022-07-23T02:42:07;15.60;99.90
20750;DHT22;10535;50.664;4.564;2022-07-23T02:44:33;15.50;99.90
20750;DHT22;10535;50.664;4.564;2022-07-23T02:46:59;15.30;99.90
20750;DHT22;10535;50.664;4.564;2022-07-23T02:49:24;15.30;99.90
20750;DHT22;10535;50.664;4.564;2022-07-23T02:51:50;15.30;99.90
20750;DHT22;10535;50.664;4.564;2022-07-23T02:54:16;15.30;99.90
20750;DHT22;10535;50.664;4.564;2022-07-23T02:56:41;15.40;99.90
20750;DHT22;10535;50.664;4.564;2022-07-23T02:59:07;15.30;99.90
20750;DHT22;10535;50.664;4.564;2022-07-23T03:01:34;15.30;99.90
20750;DHT22;10535;50.664;4.564;2022-07-23T03:03:59;15.40;99.90
20750;DHT22;10535;50.664;4.564;2022-07-23T03:06:25;15.40;99.90
20750;DHT22;10535;50.664;4.564;2022-07-23T03:08:51;15.40;99.90
20750;DHT22;10535;50.664;4.564;2022-07-23T03:11:17;15.30;99.90
20750;DHT22;10535;50.664;4.564;2022-07-23T03:13:43;15.30;99.90
20750;DHT22;10535;50.664;4.564;2022-07-23T03:16:09;15.30;99.90
20750;DHT22;10535;50.664;4.564;2022-07-23T03:18:35;15.40;99.90
20750;DHT22;10535;50.664;4.564;2022-07-23T03:21:00;15.40;99.90
20750;DHT22;10535;50.664;4.564;2022-07-23T03:23:26;15.40;99.90
20750;DHT22;10535;50.664;4.564;2022-07-23T03:25:52;15.30;99.90
20750;DHT22;10535;50.664;4.564;2022-07-23T03:28:18;15.20;99.90
20750;DHT22;10535;50.664;4.564;2022-07-23T03:30:45;15.30;99.90
20750;DHT22;10535;50.664;4.564;2022-07-23T03:33:18;15.30;99.90
20750;DHT22;10535;50.664;4.564;2022-07-23T03:35:45;15.30;99.90
20750;DHT22;10535;50.664;4.564;2022-07-23T03:38:11;15.40;99.90
20750;DHT22;10535;50.664;4.564;2022-07-23T03:40:37;15.60;99.90
20750;DHT22;10535;50.664;4.564;2022-07-23T03:43:02;15.40;99.90
20750;DHT22;10535;50.664;4.564;2022-07-23T03:45:28;15.50;99.90
20750;DHT22;10535;50.664;4.564;2022-07-23T03:47:54;15.30;99.90
20750;DHT22;10535;50.664;4.564;2022-07-23T03:50:20;15.40;99.90
20750;DHT22;10535;50.664;4.564;2022-07-23T03:52:45;15.40;99.90
20750;DHT22;10535;50.664;4.564;2022-07-23T03:55:11;15.30;99.90
20750;DHT22;10535;50.664;4.564;2022-07-23T03:57:38;15.30;99.90
20750;DHT22;10535;50.664;4.564;2022-07-23T04:00:05;15.30;99.90
20750;DHT22;10535;50.664;4.564;2022-07-23T04:02:32;15.30;99.90
20750;DHT22;10535;50.664;4.564;2022-07-23T04:04:57;15.30;99.90
20750;DHT22;10535;50.664;4.564;2022-07-23T04:07:24;15.20;99.90
20750;DHT22;10535;50.664;4.564;2022-07-23T04:09:51;15.20;99.90
20750;DHT22;10535;50.664;4.564;2022-07-23T04:12:17;15.40;99.90
20750;DHT22;10535;50.664;4.564;2022-07-23T04:14:43;15.60;99.90
20750;DHT22;10535;50.664;4.564;2022-07-23T04:17:08;15.70;99.90
20750;DHT22;10535;50.664;4.564;2022-07-23T04:19:34;15.90;99.90
20750;DHT22;10535;50.664;4.564;2022-07-23T04:22:06;15.80;99.90
20750;DHT22;10535;50.664;4.564;2022-07-23T04:24:32;15.60;99.90
20750;DHT22;10535;50.664;4.564;2022-07-23T04:26:58;15.70;99.90
20750;DHT22;10535;50.664;4.564;2022-07-23T04:29:24;15.80;99.90
20750;DHT22;10535;50.664;4.564;2022-07-23T04:31:50;15.80;99.90
20750;DHT22;10535;50.664;4.564;2022-07-23T04:34:16;15.80;99.90
20750;DHT22;10535;50.664;4.564;2022-07-23T04:36:42;15.90;99.90
20750;DHT22;10535;50.664;4.564;2022-07-23T04:39:08;15.80;99.90
20750;DHT22;10535;50.664;4.564;2022-07-23T04:41:34;16.00;99.90
20750;DHT22;10535;50.664;4.564;2022-07-23T04:44:00;16.20;99.90
20750;DHT22;10535;50.664;4.564;2022-07-23T04:46:26;16.30;99.90
20750;DHT22;10535;50.664;4.564;2022-07-23T04:48:51;16.30;99.90
20750;DHT22;10535;50.664;4.564;2022-07-23T04:51:17;16.40;99.90
20750;DHT22;10535;50.664;4.564;2022-07-23T04:53:43;16.30;99.90
20750;DHT22;10535;50.664;4.564;2022-07-23T04:56:08;16.40;99.90
20750;DHT22;10535;50.664;4.564;2022-07-23T04:58:34;16.40;99.90
20750;DHT22;10535;50.664;4.564;2022-07-23T05:01:00;16.40;99.90
20750;DHT22;10535;50.664;4.564;2022-07-23T05:03:27;16.60;99.90
20750;DHT22;10535;50.664;4.564;2022-07-23T05:05:52;16.50;99.90
20750;DHT22;10535;50.664;4.564;2022-07-23T05:08:18;16.50;99.90
20750;DHT22;10535;50.664;4.564;2022-07-23T05:10:44;16.70;99.90
20750;DHT22;10535;50.664;4.564;2022-07-23T05:13:10;16.90;99.90
20750;DHT22;10535;50.664;4.564;2022-07-23T05:15:35;17.30;99.90
20750;DHT22;10535;50.664;4.564;2022-07-23T05:18:01;17.60;99.90
20750;DHT22;10535;50.664;4.564;2022-07-23T05:20:27;17.60;99.90
20750;DHT22;10535;50.664;4.564;2022-07-23T05:22:53;17.70;99.90
20750;DHT22;10535;50.664;4.564;2022-07-23T05:25:18;18.00;99.90
20750;DHT22;10535;50.664;4.564;2022-07-23T05:27:44;18.20;99.90
20750;DHT22;10535;50.664;4.564;2022-07-23T05:30:10;18.50;99.90
20750;DHT22;10535;50.664;4.564;2022-07-23T05:32:36;18.50;99.90
20750;DHT22;10535;50.664;4.564;2022-07-23T05:35:05;18.40;99.90
20750;DHT22;10535;50.664;4.564;2022-07-23T05:37:31;18.50;99.90
20750;DHT22;10535;50.664;4.564;2022-07-23T05:40:02;18.50;99.90
20750;DHT22;10535;50.664;4.564;2022-07-23T05:42:28;18.10;99.90
20750;DHT22;10535;50.664;4.564;2022-07-23T05:44:54;18.10;99.90
20750;DHT22;10535;50.664;4.564;2022-07-23T05:47:20;18.60;99.90
20750;DHT22;10535;50.664;4.564;2022-07-23T05:49:45;19.10;99.90
20750;DHT22;10535;50.664;4.564;2022-07-23T05:52:11;19.40;99.90
20750;DHT22;10535;50.664;4.564;2022-07-23T05:54:36;19.80;99.90
20750;DHT22;10535;50.664;4.564;2022-07-23T05:57:03;20.40;99.90
20750;DHT22;10535;50.664;4.564;2022-07-23T05:59:29;20.40;99.90
20750;DHT22;10535;50.664;4.564;2022-07-23T06:01:55;20.20;99.90
20750;DHT22;10535;50.664;4.564;2022-07-23T06:04:33;20.10;99.90
20750;DHT22;10535;50.664;4.564;2022-07-23T06:06:59;19.90;99.90
20750;DHT22;10535;50.664;4.564;2022-07-23T06:09:24;19.50;99.90
20750;DHT22;10535;50.664;4.564;2022-07-23T06:11:50;19.50;99.90
20750;DHT22;10535;50.664;4.564;2022-07-23T06:14:16;19.20;99.90
20750;DHT22;10535;50.664;4.564;2022-07-23T06:16:41;19.20;99.90
20750;DHT22;10535;50.664;4.564;2022-07-23T06:19:07;18.90;99.90
20750;DHT22;10535;50.664;4.564;2022-07-23T06:21:34;19.00;99.90
20750;DHT22;10535;50.664;4.564;2022-07-23T06:24:00;19.00;99.90
20750;DHT22;10535;50.664;4.564;2022-07-23T06:26:27;19.20;99.90
20750;DHT22;10535;50.664;4.564;2022-07-23T06:28:53;19.10;99.90
20750;DHT22;10535;50.664;4.564;2022-07-23T06:31:18;19.00;99.90
20750;DHT22;10535;50.664;4.564;2022-07-23T06:33:44;19.20;99.90
20750;DHT22;10535;50.664;4.564;2022-07-23T06:36:09;19.40;99.90
20750;DHT22;10535;50.664;4.564;2022-07-23T06:38:35;19.30;99.90
20750;DHT22;10535;50.664;4.564;2022-07-23T06:41:05;19.50;99.90
20750;DHT22;10535;50.664;4.564;2022-07-23T06:43:31;19.70;99.90
20750;DHT22;10535;50.664;4.564;2022-07-23T06:45:57;20.60;99.90
20750;DHT22;10535;50.664;4.564;2022-07-23T06:48:22;20.90;99.90
20750;DHT22;10535;50.664;4.564;2022-07-23T06:50:48;21.30;99.90
20750;DHT22;10535;50.664;4.564;2022-07-23T06:53:14;21.90;99.90
20750;DHT22;10535;50.664;4.564;2022-07-23T06:55:40;22.40;99.90
20750;DHT22;10535;50.664;4.564;2022-07-23T06:58:05;22.90;99.90
20750;DHT22;10535;50.664;4.564;2022-07-23T07:00:31;23.10;99.90
20750;DHT22;10535;50.664;4.564;2022-07-23T07:02:58;22.70;99.90
20750;DHT22;10535;50.664;4.564;2022-07-23T07:05:23;22.40;99.90
20750;DHT22;10535;50.664;4.564;2022-07-23T07:07:51;22.40;99.90
20750;DHT22;10535;50.664;4.564;2022-07-23T07:10:16;22.20;99.90
20750;DHT22;10535;50.664;4.564;2022-07-23T07:12:43;22.50;99.90
20750;DHT22;10535;50.664;4.564;2022-07-23T07:15:08;22.70;99.90
20750;DHT22;10535;50.664;4.564;2022-07-23T07:17:34;22.50;99.90
20750;DHT22;10535;50.664;4.564;2022-07-23T07:20:00;22.60;99.90
20750;DHT22;10535;50.664;4.564;2022-07-23T07:22:25;23.10;99.90
20750;DHT22;10535;50.664;4.564;2022-07-23T07:24:51;23.50;99.90
20750;DHT22;10535;50.664;4.564;2022-07-23T07:27:16;23.50;99.90
20750;DHT22;10535;50.664;4.564;2022-07-23T07:29:42;23.70;99.90
20750;DHT22;10535;50.664;4.564;2022-07-23T07:32:08;23.30;99.90
20750;DHT22;10535;50.664;4.564;2022-07-23T07:34:34;23.10;99.90
20750;DHT22;10535;50.664;4.564;2022-07-23T07:36:59;22.80;99.90
20750;DHT22;10535;50.664;4.564;2022-07-23T07:39:25;22.20;99.90
20750;DHT22;10535;50.664;4.564;2022-07-23T07:41:51;21.80;99.90
20750;DHT22;10535;50.664;4.564;2022-07-23T07:44:17;21.80;99.90
20750;DHT22;10535;50.664;4.564;2022-07-23T07:46:42;22.40;99.90
20750;DHT22;10535;50.664;4.564;2022-07-23T07:49:08;22.30;99.90
20750;DHT22;10535;50.664;4.564;2022-07-23T07:51:33;22.60;99.90
20750;DHT22;10535;50.664;4.564;2022-07-23T07:53:59;22.70;99.90
20750;DHT22;10535;50.664;4.564;2022-07-23T07:56:25;23.00;99.90
20750;DHT22;10535;50.664;4.564;2022-07-23T07:58:51;22.80;99.90
20750;DHT22;10535;50.664;4.564;2022-07-23T08:01:17;22.80;99.90
20750;DHT22;10535;50.664;4.564;2022-07-23T08:03:44;22.60;99.90
20750;DHT22;10535;50.664;4.564;2022-07-23T08:06:10;22.50;99.90
20750;DHT22;10535;50.664;4.564;2022-07-23T08:08:35;22.60;99.90
20750;DHT22;10535;50.664;4.564;2022-07-23T08:11:01;22.30;99.90
20750;DHT22;10535;50.664;4.564;2022-07-23T08:13:27;21.80;99.90
20750;DHT22;10535;50.664;4.564;2022-07-23T08:15:52;21.70;99.90
20750;DHT22;10535;50.664;4.564;2022-07-23T08:18:21;21.60;99.90
20750;DHT22;10535;50.664;4.564;2022-07-23T08:20:46;21.70;99.90
20750;DHT22;10535;50.664;4.564;2022-07-23T08:23:12;21.80;99.90
20750;DHT22;10535;50.664;4.564;2022-07-23T08:25:40;22.00;99.90
20750;DHT22;10535;50.664;4.564;2022-07-23T08:28:09;21.90;99.90
20750;DHT22;10535;50.664;4.564;2022-07-23T08:30:36;21.80;99.90
20750;DHT22;10535;50.664;4.564;2022-07-23T08:33:04;22.00;99.90
20750;DHT22;10535;50.664;4.564;2022-07-23T08:35:31;22.00;99.90
20750;DHT22;10535;50.664;4.564;2022-07-23T08:38:13;22.00;99.90
20750;DHT22;10535;50.664;4.564;2022-07-23T08:40:44;21.80;99.90
20750;DHT22;10535;50.664;4.564;2022-07-23T08:43:14;21.80;99.90
20750;DHT22;10535;50.664;4.564;2022-07-23T08:45:46;22.10;99.90
20750;DHT22;10535;50.664;4.564;2022-07-23T08:48:14;21.90;99.90
20750;DHT22;10535;50.664;4.564;2022-07-23T08:50:57;22.00;99.90
20750;DHT22;10535;50.664;4.564;2022-07-23T08:53:27;22.50;99.90
20750;DHT22;10535;50.664;4.564;2022-07-23T08:56:00;22.50;99.90
20750;DHT22;10535;50.664;4.564;2022-07-23T08:58:33;22.40;99.90
20750;DHT22;10535;50.664;4.564;2022-07-23T09:01:07;22.40;99.90
20750;DHT22;10535;50.664;4.564;2022-07-23T09:03:37;22.60;99.90
20750;DHT22;10535;50.664;4.564;2022-07-23T09:06:06;22.40;99.90
20750;DHT22;10535;50.664;4.564;2022-07-23T09:08:41;22.30;99.90
20750;DHT22;10535;50.664;4.564;2022-07-23T09:11:12;22.20;99.90
20750;DHT22;10535;50.664;4.564;2022-07-23T09:13:42;22.30;99.90
20750;DHT22;10535;50.664;4.564;2022-07-23T09:16:30;22.40;99.90
20750;DHT22;10535;50.664;4.564;2022-07-23T09:19:01;22.70;99.90
20750;DHT22;10535;50.664;4.564;2022-07-23T09:21:32;23.10;99.90
20750;DHT22;10535;50.664;4.564;2022-07-23T09:24:36;23.20;99.90
20750;DHT22;10535;50.664;4.564;2022-07-23T09:27:03;23.00;99.90
20750;DHT22;10535;50.664;4.564;2022-07-23T09:29:29;23.00;99.90
20750;DHT22;10535;50.664;4.564;2022-07-23T09:31:55;22.80;99.90
20750;DHT22;10535;50.664;4.564;2022-07-23T09:34:23;22.80;99.90
20750;DHT22;10535;50.664;4.564;2022-07-23T09:36:52;23.10;99.90
20750;DHT22;10535;50.664;4.564;2022-07-23T09:39:28;23.40;99.90
20750;DHT22;10535;50.664;4.564;2022-07-23T09:41:54;23.50;99.90
20750;DHT22;10535;50.664;4.564;2022-07-23T09:44:20;23.50;99.90
20750;DHT22;10535;50.664;4.564;2022-07-23T09:46:50;23.50;99.90
20750;DHT22;10535;50.664;4.564;2022-07-23T09:49:22;23.30;99.90
20750;DHT22;10535;50.664;4.564;2022-07-23T09:51:51;23.40;99.90
20750;DHT22;10535;50.664;4.564;2022-07-23T09:57:09;23.50;99.90
20750;DHT22;10535;50.664;4.564;2022-07-23T09:59:39;23.70;99.90
20750;DHT22;10535;50.664;4.564;2022-07-23T10:02:06;23.70;99.90
20750;DHT22;10535;50.664;4.564;2022-07-23T10:04:33;24.20;99.90
20750;DHT22;10535;50.664;4.564;2022-07-23T10:07:00;23.80;99.90
20750;DHT22;10535;50.664;4.564;2022-07-23T10:09:31;23.70;99.90
20750;DHT22;10535;50.664;4.564;2022-07-23T10:12:00;23.50;99.90
20750;DHT22;10535;50.664;4.564;2022-07-23T10:14:33;23.70;99.90
20750;DHT22;10535;50.664;4.564;2022-07-23T10:17:02;23.90;99.90
20750;DHT22;10535;50.664;4.564;2022-07-23T10:19:36;24.30;99.90
20750;DHT22;10535;50.664;4.564;2022-07-23T10:22:14;24.30;99.90
20750;DHT22;10535;50.664;4.564;2022-07-23T10:25:16;24.20;99.90
20750;DHT22;10535;50.664;4.564;2022-07-23T10:28:06;24.30;99.90
20750;DHT22;10535;50.664;4.564;2022-07-23T10:31:18;24.00;99.90
20750;DHT22;10535;50.664;4.564;2022-07-23T10:34:12;24.00;99.90
20750;DHT22;10535;50.664;4.564;2022-07-23T10:40:23;23.90;99.90
20750;DHT22;10535;50.664;4.564;2022-07-23T10:43:13;24.00;99.90
20750;DHT22;10535;50.664;4.564;2022-07-23T10:45:57;23.90;99.90
20750;DHT22;10535;50.664;4.564;2022-07-23T10:57:22;24.30;99.90
20750;DHT22;10535;50.664;4.564;2022-07-23T11:02:29;24.30;99.90
20750;DHT22;10535;50.664;4.564;2022-07-23T11:05:05;24.70;99.90
20750;DHT22;10535;50.664;4.564;2022-07-23T11:07:31;25.30;99.90
20750;DHT22;10535;50.664;4.564;2022-07-23T11:09:58;25.40;99.90
20750;DHT22;10535;50.664;4.564;2022-07-23T11:15:07;24.90;99.90
20750;DHT22;10535;50.664;4.564;2022-07-23T11:17:37;24.60;99.90
20750;DHT22;10535;50.664;4.564;2022-07-23T11:25:29;24.70;99.90
20750;DHT22;10535;50.664;4.564;2022-07-23T11:28:14;24.70;99.90
20750;DHT22;10535;50.664;4.564;2022-07-23T11:30:45;24.90;99.90
20750;DHT22;10535;50.664;4.564;2022-07-23T11:35:42;25.10;99.90
20750;DHT22;10535;50.664;4.564;2022-07-23T11:38:16;25.30;99.90
20750;DHT22;10535;50.664;4.564;2022-07-23T11:40:47;25.70;99.90
20750;DHT22;10535;50.664;4.564;2022-07-23T11:43:14;26.00;99.90
20750;DHT22;10535;50.664;4.564;2022-07-23T11:45:42;26.20;99.90
20750;DHT22;10535;50.664;4.564;2022-07-23T11:48:14;26.10;99.90
20750;DHT22;10535;50.664;4.564;2022-07-23T11:50:40;26.30;99.90
20750;DHT22;10535;50.664;4.564;2022-07-23T11:53:06;26.70;99.90
20750;DHT22;10535;50.664;4.564;2022-07-23T11:55:32;27.00;99.90
20750;DHT22;10535;50.664;4.564;2022-07-23T11:57:59;27.30;99.90
20750;DHT22;10535;50.664;4.564;2022-07-23T12:00:28;27.00;99.90
20750;DHT22;10535;50.664;4.564;2022-07-23T12:02:58;27.10;99.90
20750;DHT22;10535;50.664;4.564;2022-07-23T12:05:33;27.10;99.90
20750;DHT22;10535;50.664;4.564;2022-07-23T12:08:00;27.00;99.90
20750;DHT22;10535;50.664;4.564;2022-07-23T12:10:41;27.20;99.90
20750;DHT22;10535;50.664;4.564;2022-07-23T12:13:12;27.40;99.90
20750;DHT22;10535;50.664;4.564;2022-07-23T12:15:45;27.80;99.90
20750;DHT22;10535;50.664;4.564;2022-07-23T12:18:14;27.60;99.90
20750;DHT22;10535;50.664;4.564;2022-07-23T12:20:45;27.60;99.90
20750;DHT22;10535;50.664;4.564;2022-07-23T12:23:13;27.70;99.90
20750;DHT22;10535;50.664;4.564;2022-07-23T12:25:44;27.50;99.90
20750;DHT22;10535;50.664;4.564;2022-07-23T12:28:12;27.40;99.90
20750;DHT22;10535;50.664;4.564;2022-07-23T12:30:44;27.60;99.90
20750;DHT22;10535;50.664;4.564;2022-07-23T12:33:12;27.50;99.90
20750;DHT22;10535;50.664;4.564;2022-07-23T12:35:43;27.00;99.90
20750;DHT22;10535;50.664;4.564;2022-07-23T12:38:12;27.20;99.90
20750;DHT22;10535;50.664;4.564;2022-07-23T12:40:48;27.20;99.90
20750;DHT22;10535;50.664;4.564;2022-07-23T12:43:22;27.10;99.90
20750;DHT22;10535;50.664;4.564;2022-07-23T12:48:29;27.10;99.90
20750;DHT22;10535;50.664;4.564;2022-07-23T12:51:06;26.90;99.90
20750;DHT22;10535;50.664;4.564;2022-07-23T12:53:43;26.90;99.90
20750;DHT22;10535;50.664;4.564;2022-07-23T12:56:17;26.80;99.90
20750;DHT22;10535;50.664;4.564;2022-07-23T12:58:47;26.80;99.90
20750;DHT22;10535;50.664;4.564;2022-07-23T13:01:24;26.90;99.90
20750;DHT22;10535;50.664;4.564;2022-07-23T13:06:38;26.80;99.90
20750;DHT22;10535;50.664;4.564;2022-07-23T13:09:07;27.00;99.90
20750;DHT22;10535;50.664;4.564;2022-07-23T13:11:32;27.20;99.90
20750;DHT22;10535;50.664;4.564;2022-07-23T13:14:00;27.50;99.90
20750;DHT22;10535;50.664;4.564;2022-07-23T13:16:30;27.70;99.90
20750;DHT22;10535;50.664;4.564;2022-07-23T13:18:56;27.50;99.90
20750;DHT22;10535;50.664;4.564;2022-07-23T13:21:22;27.70;99.90
20750;DHT22;10535;50.664;4.564;2022-07-23T13:23:49;28.10;99.90
20750;DHT22;10535;50.664;4.564;2022-07-23T13:26:15;28.10;99.90
20750;DHT22;10535;50.664;4.564;2022-07-23T13:28:40;28.30;99.90
20750;DHT22;10535;50.664;4.564;2022-07-23T13:31:06;28.30;99.90
20750;DHT22;10535;50.664;4.564;2022-07-23T13:33:34;28.30;99.90
20750;DHT22;10535;50.664;4.564;2022-07-23T13:35:59;28.00;99.90
20750;DHT22;10535;50.664;4.564;2022-07-23T13:38:25;28.00;99.90
20750;DHT22;10535;50.664;4.564;2022-07-23T13:40:52;28.30;99.90
20750;DHT22;10535;50.664;4.564;2022-07-23T13:43:19;28.50;99.90
20750;DHT22;10535;50.664;4.564;2022-07-23T13:45:45;28.40;99.90
20750;DHT22;10535;50.664;4.564;2022-07-23T13:48:12;28.20;99.90
20750;DHT22;10535;50.664;4.564;2022-07-23T13:50:38;28.40;99.90
20750;DHT22;10535;50.664;4.564;2022-07-23T13:53:06;28.10;99.90
20750;DHT22;10535;50.664;4.564;2022-07-23T13:55:33;27.80;99.90
20750;DHT22;10535;50.664;4.564;2022-07-23T13:57:59;27.70;99.90
20750;DHT22;10535;50.664;4.564;2022-07-23T14:00:26;27.70;99.90
20750;DHT22;10535;50.664;4.564;2022-07-23T14:02:52;27.90;99.90
20750;DHT22;10535;50.664;4.564;2022-07-23T14:05:18;28.00;99.90
20750;DHT22;10535;50.664;4.564;2022-07-23T14:07:44;27.80;99.90
20750;DHT22;10535;50.664;4.564;2022-07-23T14:10:12;27.70;99.90
20750;DHT22;10535;50.664;4.564;2022-07-23T14:12:38;27.50;99.90
20750;DHT22;10535;50.664;4.564;2022-07-23T14:15:05;27.60;99.90
20750;DHT22;10535;50.664;4.564;2022-07-23T14:17:32;28.00;99.90
20750;DHT22;10535;50.664;4.564;2022-07-23T14:19:58;28.10;99.90
20750;DHT22;10535;50.664;4.564;2022-07-23T14:22:24;28.40;99.90
20750;DHT22;10535;50.664;4.564;2022-07-23T14:24:50;28.70;99.90
20750;DHT22;10535;50.664;4.564;2022-07-23T14:27:16;29.10;99.90
20750;DHT22;10535;50.664;4.564;2022-07-23T14:29:41;29.10;99.90
20750;DHT22;10535;50.664;4.564;2022-07-23T14:32:07;29.40;99.90
20750;DHT22;10535;50.664;4.564;2022-07-23T14:34:33;29.40;99.90
20750;DHT22;10535;50.664;4.564;2022-07-23T14:36:59;28.80;99.90
20750;DHT22;10535;50.664;4.564;2022-07-23T14:39:25;28.70;99.90
20750;DHT22;10535;50.664;4.564;2022-07-23T14:41:51;29.10;99.90
20750;DHT22;10535;50.664;4.564;2022-07-23T14:44:17;29.50;99.90
20750;DHT22;10535;50.664;4.564;2022-07-23T14:46:43;29.60;99.90
20750;DHT22;10535;50.664;4.564;2022-07-23T14:49:09;29.40;99.90
20750;DHT22;10535;50.664;4.564;2022-07-23T14:51:35;29.60;99.90
20750;DHT22;10535;50.664;4.564;2022-07-23T14:54:02;29.60;99.90
20750;DHT22;10535;50.664;4.564;2022-07-23T14:56:28;29.50;99.90
20750;DHT22;10535;50.664;4.564;2022-07-23T14:58:53;28.80;99.90
20750;DHT22;10535;50.664;4.564;2022-07-23T15:01:21;28.90;99.90
20750;DHT22;10535;50.664;4.564;2022-07-23T15:03:48;28.80;99.90
20750;DHT22;10535;50.664;4.564;2022-07-23T15:06:13;28.80;99.90
20750;DHT22;10535;50.664;4.564;2022-07-23T15:08:40;28.70;99.90
20750;DHT22;10535;50.664;4.564;2022-07-23T15:11:06;28.40;99.90
20750;DHT22;10535;50.664;4.564;2022-07-23T15:13:35;28.90;99.90
20750;DHT22;10535;50.664;4.564;2022-07-23T15:16:02;28.90;99.90
20750;DHT22;10535;50.664;4.564;2022-07-23T15:18:28;28.70;99.90
20750;DHT22;10535;50.664;4.564;2022-07-23T15:20:54;28.30;99.90
20750;DHT22;10535;50.664;4.564;2022-07-23T15:23:19;28.50;99.90
20750;DHT22;10535;50.664;4.564;2022-07-23T15:25:45;28.80;99.90
20750;DHT22;10535;50.664;4.564;2022-07-23T15:28:11;28.60;99.90
20750;DHT22;10535;50.664;4.564;2022-07-23T15:30:36;28.70;99.90
20750;DHT22;10535;50.664;4.564;2022-07-23T15:33:02;28.80;99.90
20750;DHT22;10535;50.664;4.564;2022-07-23T15:35:30;28.60;99.90
20750;DHT22;10535;50.664;4.564;2022-07-23T15:37:56;28.80;99.90
20750;DHT22;10535;50.664;4.564;2022-07-23T15:40:21;29.00;99.90
20750;DHT22;10535;50.664;4.564;2022-07-23T15:42:47;29.20;99.90
20750;DHT22;10535;50.664;4.564;2022-07-23T15:45:13;29.20;99.90
20750;DHT22;10535;50.664;4.564;2022-07-23T15:47:38;28.90;99.90
20750;DHT22;10535;50.664;4.564;2022-07-23T15:50:06;28.60;99.90
20750;DHT22;10535;50.664;4.564;2022-07-23T15:52:32;28.30;99.90
20750;DHT22;10535;50.664;4.564;2022-07-23T15:54:57;28.30;99.90
20750;DHT22;10535;50.664;4.564;2022-07-23T15:57:23;28.20;99.90
20750;DHT22;10535;50.664;4.564;2022-07-23T15:59:49;28.40;99.90
20750;DHT22;10535;50.664;4.564;2022-07-23T16:02:14;28.70;99.90
20750;DHT22;10535;50.664;4.564;2022-07-23T16:04:42;29.10;99.90
20750;DHT22;10535;50.664;4.564;2022-07-23T16:07:07;29.00;99.90